Minneapolis-St Paul International/Wold-Chamberlain Airport
KMSP : now visible

Airfield :











YOU CAN JOIN US ON...

 
LOGIN :

Register | Disclaimer

   EN    FR    IT 

 









Legend :    VFR   Marginal VFR   IFR   Intensive IFR   Very Intensive IFR
Visi :
Ceiling :
>= 8 km
>= 3000ft
5 to 8 km
1000 to 3000 ft
1500m to 5 km
500 to 1000 ft
800 to 1500m
200 to 500 ft
< 800m
< 200 ft
Symbols :   Thunderstorms  Fog  Heavy snow  Heavy precipitations  Wind > 20 kt






- Airport Elevation : 841 ft
- IATA code : MSP


KMSP - Minneapolis-St Paul International/Wold-Chamberlain

CURRENT METAR :
  • 161753Z 19012G26KT 10SM CLR 28/16 A2978 RMK AO2 PK WND 17027/1731 SLP080 T02780161 10278 20189 58021

EXPIRED METARs :
  • 161653Z 18014G23KT 10SM FEW075 26/15 A2981 RMK AO2 SLP090 ACC DSNT E T02610150
  • 161553Z 18016G23KT 10SM FEW075 FEW095 24/14 A2983 RMK AO2 SLP096 ACC DSNT N-SE T02440144

TAF KMSP
Valid from the 16 at 18:00 until the 18 at 00:00 UTC


161730Z 1618/1724 18018G30KT P6SM FEW250
FM170200 19013G22KT P6SM SCT250 WS020/20045KT
FM170600 21009KT P6SM VCTS OVC070CB WS020/22040KT
FM170800 26007KT P6SM SHRA VCTS SCT020 BKN040CB
FM170900 30008KT P6SM SHRA OVC045
FM171200 34007KT P6SM OVC060
KZMP FIR / North America



MET'MAP, your aeronautical weather chart ! - Copyright ORBIFLY December 2007 - Disclaimer

ORBIFLY MET'MAP TEAM :

Programming & Development : Alexandra Zaïnal
Concept & original design : Baudouin d'Aumeries
Assistance for programming : Marc-Olivier Méhu
Technical & hardware support : Manuel Goepfert

Contact : metmap@orbifly.com




SOURCES & CREDITS :

   NOAA       Earth
Advisory